createdAt,value
2018-08-04T00:01:10.749Z,13.47
2018-08-04T00:03:40.053Z,14.23
2018-08-04T00:06:09.315Z,13.60
2018-08-04T00:08:38.724Z,13.70
2018-08-04T00:11:08.342Z,14.30
2018-08-04T00:13:37.696Z,13.23
2018-08-04T00:16:06.992Z,13.47
2018-08-04T00:18:36.341Z,13.37
2018-08-04T00:21:05.623Z,13.33
2018-08-04T00:23:35.005Z,13.77
2018-08-04T00:26:04.267Z,13.80
2018-08-04T00:28:33.589Z,14.50
2018-08-04T00:31:02.874Z,12.80
2018-08-04T00:33:32.123Z,14.33
2018-08-04T00:36:01.400Z,14.53
2018-08-04T00:38:30.700Z,14.80
2018-08-04T00:41:00.140Z,14.07
2018-08-04T00:43:29.445Z,14.13
2018-08-04T00:45:58.850Z,14.00
2018-08-04T00:48:28.127Z,14.77
2018-08-04T00:50:57.402Z,14.30
2018-08-04T00:53:26.712Z,13.57
2018-08-04T00:55:56.111Z,15.23
2018-08-04T00:58:25.384Z,15.27
2018-08-04T01:00:54.700Z,14.73
2018-08-04T01:03:24.084Z,14.70
2018-08-04T01:05:53.372Z,13.80
2018-08-04T01:08:22.679Z,14.37
2018-08-04T01:10:52.006Z,13.77
2018-08-04T01:13:21.319Z,14.70
2018-08-04T01:15:50.575Z,15.73
2018-08-04T01:18:19.887Z,14.97
2018-08-04T01:20:49.167Z,14.67
2018-08-04T01:23:18.510Z,14.60
2018-08-04T01:25:47.831Z,15.33
2018-08-04T01:28:17.122Z,16.13
2018-08-04T01:30:46.388Z,15.90
2018-08-04T01:33:15.667Z,15.90
2018-08-04T01:35:44.986Z,15.27
2018-08-04T01:38:14.280Z,15.83
2018-08-04T01:40:43.600Z,15.77
2018-08-04T01:43:12.876Z,15.53
2018-08-04T01:45:42.163Z,15.83
2018-08-04T01:48:11.567Z,16.57
2018-08-04T01:50:40.845Z,15.70
2018-08-04T01:53:10.234Z,14.67
2018-08-04T01:55:39.500Z,15.93
2018-08-04T01:58:08.795Z,16.60
2018-08-04T02:00:38.123Z,16.07
2018-08-04T02:03:07.436Z,15.27
2018-08-04T02:05:36.739Z,15.80
2018-08-04T02:08:06.312Z,15.13
2018-08-04T02:10:35.611Z,15.90
2018-08-04T02:13:05.088Z,15.23
2018-08-04T02:15:34.691Z,15.13
2018-08-04T02:18:03.946Z,15.67
2018-08-04T02:20:33.552Z,14.90
2018-08-04T02:23:02.831Z,14.13
2018-08-04T02:25:32.156Z,15.90
2018-08-04T02:28:01.418Z,15.57
2018-08-04T02:30:30.701Z,15.90
2018-08-04T02:33:00.140Z,15.37
2018-08-04T02:35:29.435Z,15.90
2018-08-04T02:37:58.730Z,15.77
2018-08-04T02:40:28.011Z,15.23
2018-08-04T02:42:57.324Z,16.00
2018-08-04T02:45:26.629Z,15.73
2018-08-04T02:47:55.895Z,16.57
2018-08-04T02:50:25.176Z,16.17
2018-08-04T02:52:54.459Z,16.33
2018-08-04T02:55:23.822Z,15.97
2018-08-04T02:57:53.139Z,15.67
2018-08-04T03:00:22.455Z,15.97
2018-08-04T03:02:51.743Z,16.83
2018-08-04T03:05:21.060Z,16.80
2018-08-04T03:07:50.324Z,16.33
2018-08-04T03:10:19.681Z,16.73
2018-08-04T03:12:48.962Z,16.30
2018-08-04T03:15:18.262Z,16.63
2018-08-04T03:17:47.580Z,15.97
2018-08-04T03:20:16.875Z,16.53
2018-08-04T03:22:46.171Z,17.03
2018-08-04T03:25:15.452Z,16.17
2018-08-04T03:27:44.821Z,16.87
2018-08-04T03:30:14.109Z,17.20
2018-08-04T03:32:43.416Z,17.07
2018-08-04T03:35:12.705Z,17.00
2018-08-04T03:37:41.995Z,16.70
2018-08-04T03:40:11.288Z,16.83
2018-08-04T03:42:40.568Z,17.10
2018-08-04T03:45:09.843Z,16.67
2018-08-04T03:47:39.172Z,17.07
2018-08-04T03:50:08.452Z,16.33
2018-08-04T03:52:37.750Z,16.83
2018-08-04T03:55:07.117Z,16.23
2018-08-04T03:57:36.416Z,17.07
2018-08-04T04:00:06.432Z,15.83
2018-08-04T04:02:35.747Z,16.73
2018-08-04T04:05:05.181Z,17.20
2018-08-04T04:07:34.547Z,16.63
2018-08-04T04:10:03.897Z,17.13
2018-08-04T04:12:33.199Z,16.93
2018-08-04T04:15:02.502Z,17.13
2018-08-04T04:17:44.966Z,17.07
2018-08-04T04:20:14.623Z,17.10
2018-08-04T04:22:44.107Z,16.83
2018-08-04T04:25:13.424Z,15.73
2018-08-04T04:27:43.222Z,16.37
2018-08-04T04:30:13.139Z,15.90
2018-08-04T04:32:42.400Z,15.47
2018-08-04T04:35:11.899Z,15.03
2018-08-04T04:37:41.199Z,15.10
2018-08-04T04:40:10.462Z,14.93
2018-08-04T04:42:39.758Z,15.30
2018-08-04T04:45:09.037Z,15.40
2018-08-04T04:47:38.452Z,14.50
2018-08-04T04:50:07.920Z,15.30
2018-08-04T04:52:37.196Z,16.17
2018-08-04T04:55:06.526Z,14.63
2018-08-04T04:57:35.838Z,15.50
2018-08-04T05:00:05.406Z,15.40
2018-08-04T05:02:34.704Z,15.43
2018-08-04T05:05:03.993Z,15.10
2018-08-04T05:07:33.333Z,15.10
2018-08-04T05:10:02.615Z,15.87
2018-08-04T05:12:31.942Z,16.33
2018-08-04T05:15:01.361Z,16.17
2018-08-04T05:17:30.639Z,16.43
2018-08-04T05:19:59.920Z,16.63
2018-08-04T05:22:29.204Z,15.53
2018-08-04T05:24:58.507Z,15.00
2018-08-04T05:27:27.807Z,15.33
2018-08-04T05:29:57.101Z,15.37
2018-08-04T05:32:26.371Z,14.20
2018-08-04T05:34:55.695Z,14.13
2018-08-04T05:37:25.008Z,15.87
2018-08-04T05:39:54.255Z,16.03
2018-08-04T05:42:23.588Z,14.63
2018-08-04T05:44:52.873Z,15.63
2018-08-04T05:47:22.163Z,15.50
2018-08-04T05:49:51.583Z,15.30
2018-08-04T05:52:21.139Z,14.87
2018-08-04T05:54:50.423Z,15.53
2018-08-04T05:57:19.719Z,15.13
2018-08-04T05:59:49.010Z,15.23
2018-08-04T06:02:18.300Z,16.23
2018-08-04T06:04:47.580Z,14.80
2018-08-04T06:07:16.920Z,15.23
2018-08-04T06:09:46.214Z,16.47
2018-08-04T06:12:15.493Z,16.50
2018-08-04T06:14:44.829Z,17.03
2018-08-04T06:17:30.717Z,17.23
2018-08-04T06:20:00.055Z,18.40
2018-08-04T06:22:29.342Z,19.60
2018-08-04T06:24:58.636Z,19.67
2018-08-04T06:27:27.905Z,19.90
2018-08-04T06:29:57.210Z,19.60
2018-08-04T06:32:40.816Z,18.83
2018-08-04T06:35:12.138Z,18.27
2018-08-04T06:37:41.507Z,17.50
2018-08-04T06:40:10.811Z,16.70
2018-08-04T06:42:40.291Z,16.97
2018-08-04T06:45:09.597Z,16.93
2018-08-04T06:47:38.876Z,15.93
2018-08-04T06:50:08.239Z,16.63
2018-08-04T06:52:37.652Z,16.27
2018-08-04T06:55:06.992Z,17.43
2018-08-04T06:57:36.302Z,17.30
2018-08-04T07:00:06.552Z,16.17
2018-08-04T07:02:35.944Z,15.77
2018-08-04T07:05:05.238Z,16.43
2018-08-04T07:07:34.540Z,16.23
2018-08-04T07:10:03.859Z,16.20
2018-08-04T07:12:33.149Z,15.90
2018-08-04T07:15:02.477Z,16.07
2018-08-04T07:17:31.769Z,15.30
2018-08-04T07:20:01.075Z,14.97
2018-08-04T07:22:30.355Z,15.53
2018-08-04T07:24:59.650Z,16.13
2018-08-04T07:27:28.931Z,15.57
2018-08-04T07:29:58.210Z,15.03
2018-08-04T07:32:27.500Z,15.67
2018-08-04T07:34:56.836Z,15.73
2018-08-04T07:37:26.143Z,15.67
2018-08-04T07:39:55.525Z,15.77
2018-08-04T07:42:24.803Z,15.30
2018-08-04T07:44:54.075Z,15.03
2018-08-04T07:47:23.370Z,14.03
2018-08-04T07:49:52.648Z,14.60
2018-08-04T07:52:21.935Z,14.43
2018-08-04T07:54:51.240Z,14.40
2018-08-04T07:57:20.548Z,14.67
2018-08-04T07:59:49.874Z,14.30
2018-08-04T08:02:19.215Z,13.83
2018-08-04T08:04:48.500Z,13.00
2018-08-04T08:07:20.774Z,14.17
2018-08-04T08:09:50.552Z,14.13
2018-08-04T08:12:19.851Z,15.23
2018-08-04T08:14:49.151Z,14.57
2018-08-04T08:17:18.599Z,14.07
2018-08-04T08:19:48.036Z,13.17
2018-08-04T08:22:17.375Z,13.37
2018-08-04T08:24:46.663Z,13.87
2018-08-04T08:27:15.956Z,13.07
2018-08-04T08:29:45.218Z,13.50
2018-08-04T08:32:14.511Z,14.53
2018-08-04T08:34:43.804Z,14.03
2018-08-04T08:37:13.131Z,13.70
2018-08-04T08:39:42.404Z,12.07
2018-08-04T08:42:11.744Z,12.70
2018-08-04T08:44:41.081Z,12.93
2018-08-04T08:47:10.557Z,12.83
2018-08-04T08:49:39.886Z,12.80
2018-08-04T08:52:09.216Z,12.23
2018-08-04T08:54:38.529Z,12.87
2018-08-04T08:57:07.804Z,12.73
2018-08-04T08:59:37.107Z,12.53
2018-08-04T09:02:06.498Z,12.07
2018-08-04T09:04:35.855Z,11.40
2018-08-04T09:07:05.255Z,11.87
2018-08-04T09:09:34.606Z,12.10
2018-08-04T09:12:03.898Z,12.07
2018-08-04T09:14:33.191Z,11.10
2018-08-04T09:17:02.491Z,12.37
2018-08-04T09:19:31.983Z,11.30
2018-08-04T09:22:01.316Z,12.10
2018-08-04T09:24:30.599Z,11.37
2018-08-04T09:26:59.898Z,11.80
2018-08-04T09:29:29.178Z,11.40
2018-08-04T09:31:58.466Z,10.87
2018-08-04T09:34:27.796Z,11.80
2018-08-04T09:36:57.072Z,11.10
2018-08-04T09:39:48.375Z,11.00
2018-08-04T09:42:17.673Z,11.70
2018-08-04T09:44:46.952Z,10.90
2018-08-04T09:47:16.233Z,11.20
2018-08-04T09:49:45.562Z,10.87
2018-08-04T09:52:14.843Z,11.17
2018-08-04T09:54:44.131Z,11.37
2018-08-04T09:57:13.414Z,10.97
2018-08-04T09:59:42.894Z,10.63
2018-08-04T10:02:13.119Z,10.27
2018-08-04T10:04:42.384Z,10.17
2018-08-04T10:07:11.374Z,10.70
2018-08-04T10:09:40.584Z,10.50
2018-08-04T10:12:09.911Z,10.27
2018-08-04T10:14:39.201Z,10.47
2018-08-04T10:17:08.501Z,10.23
2018-08-04T10:19:37.764Z,9.87
2018-08-04T10:22:07.091Z,9.67
2018-08-04T10:24:36.392Z,10.43
2018-08-04T10:27:05.958Z,10.10
2018-08-04T10:29:35.431Z,9.83
2018-08-04T10:32:04.814Z,10.70
2018-08-04T10:34:34.071Z,10.47
2018-08-04T10:37:03.415Z,10.23
2018-08-04T10:39:32.672Z,9.97
2018-08-04T10:42:01.978Z,9.77
2018-08-04T10:44:31.239Z,9.60
2018-08-04T10:47:00.668Z,9.60
2018-08-04T10:49:29.997Z,9.80
2018-08-04T10:51:59.282Z,9.73
2018-08-04T10:54:28.609Z,10.47
2018-08-04T10:56:58.190Z,10.70
2018-08-04T10:59:27.428Z,10.20
2018-08-04T11:01:56.707Z,9.40
2018-08-04T11:04:26.036Z,10.37
2018-08-04T11:06:55.319Z,10.47
2018-08-04T11:09:24.630Z,9.70
2018-08-04T11:11:53.903Z,8.83
2018-08-04T11:14:23.177Z,9.83
2018-08-04T11:16:52.562Z,10.03
2018-08-04T11:19:21.851Z,9.73
2018-08-04T11:21:51.140Z,10.00
2018-08-04T11:24:20.450Z,9.10
2018-08-04T11:26:49.791Z,9.57
2018-08-04T11:29:19.070Z,9.50
2018-08-04T11:31:50.850Z,8.80
2018-08-04T11:34:20.145Z,9.67
2018-08-04T11:36:49.419Z,8.37
2018-08-04T11:39:18.691Z,10.37
2018-08-04T11:41:47.943Z,9.13
2018-08-04T11:44:17.240Z,9.60
2018-08-04T11:46:46.512Z,9.47
2018-08-04T11:49:15.792Z,8.87
2018-08-04T11:51:44.762Z,8.87
2018-08-04T11:54:13.941Z,9.33
2018-08-04T11:56:43.243Z,8.90
2018-08-04T11:59:12.515Z,9.13
2018-08-04T12:01:41.958Z,9.80
2018-08-04T12:04:11.271Z,8.20
2018-08-04T12:06:40.538Z,9.40
2018-08-04T12:09:11.772Z,8.97
2018-08-04T12:11:41.474Z,8.90
2018-08-04T12:14:10.871Z,8.83
2018-08-04T12:16:40.136Z,8.33
2018-08-04T12:19:09.415Z,8.63
2018-08-04T12:21:38.699Z,8.73
2018-08-04T12:24:07.980Z,8.23
2018-08-04T12:26:37.272Z,8.17
2018-08-04T12:29:06.632Z,8.07
2018-08-04T12:31:35.942Z,8.10
2018-08-04T12:34:05.658Z,8.57
2018-08-04T12:36:34.574Z,8.80
2018-08-04T12:39:05.004Z,8.57
2018-08-04T12:41:34.329Z,9.17
2018-08-04T12:44:04.408Z,7.90
2018-08-04T12:46:33.690Z,8.87
2018-08-04T12:49:02.975Z,8.43
2018-08-04T12:51:32.420Z,8.37
2018-08-04T12:54:08.635Z,8.33
2018-08-04T12:56:37.899Z,8.53
2018-08-04T12:59:07.179Z,7.97
2018-08-04T13:01:36.457Z,8.43
2018-08-04T13:04:05.559Z,8.30
2018-08-04T13:06:34.735Z,7.27
2018-08-04T13:09:06.032Z,7.63
2018-08-04T13:11:35.351Z,8.37
2018-08-04T13:14:04.615Z,7.63
2018-08-04T13:16:33.939Z,7.77
2018-08-04T13:19:03.250Z,7.90
2018-08-04T13:21:32.551Z,8.13
2018-08-04T13:24:01.821Z,7.87
2018-08-04T13:26:31.246Z,7.40
2018-08-04T13:29:00.678Z,8.40
2018-08-04T13:31:29.981Z,7.60
2018-08-04T13:33:59.276Z,7.80
2018-08-04T13:36:28.543Z,7.83
2018-08-04T13:38:57.804Z,7.97
2018-08-04T13:41:27.097Z,8.23
2018-08-04T13:43:56.362Z,8.40
2018-08-04T13:46:25.679Z,7.87
2018-08-04T13:48:55.016Z,7.53
2018-08-04T13:51:24.278Z,7.60
2018-08-04T13:53:53.567Z,8.10
2018-08-04T13:56:22.849Z,8.33
2018-08-04T13:58:52.172Z,7.57
2018-08-04T14:01:21.516Z,7.80
2018-08-04T14:03:50.982Z,7.27
2018-08-04T14:06:20.688Z,7.60
2018-08-04T14:08:50.027Z,7.93
2018-08-04T14:11:19.322Z,7.23
2018-08-04T14:13:48.606Z,7.90
2018-08-04T14:16:17.880Z,7.60
2018-08-04T14:18:47.259Z,7.40
2018-08-04T14:21:16.533Z,7.73
2018-08-04T14:23:45.832Z,7.63
2018-08-04T14:26:15.098Z,7.33
2018-08-04T14:28:44.493Z,7.20
2018-08-04T14:31:13.703Z,7.40
2018-08-04T14:33:42.990Z,7.33
2018-08-04T14:36:12.271Z,7.67
2018-08-04T14:38:41.549Z,7.67
2018-08-04T14:41:10.807Z,7.83
2018-08-04T14:43:40.107Z,7.80
2018-08-04T14:46:09.419Z,7.57
2018-08-04T14:48:38.704Z,7.77
2018-08-04T14:51:08.079Z,7.47
2018-08-04T14:53:37.447Z,8.03
2018-08-04T14:56:06.719Z,7.73
2018-08-04T14:58:36.027Z,8.10
2018-08-04T15:01:05.382Z,7.83
2018-08-04T15:03:34.687Z,7.27
2018-08-04T15:06:04.000Z,7.73
2018-08-04T15:08:33.442Z,7.77
2018-08-04T15:11:02.752Z,7.60
2018-08-04T15:13:32.057Z,7.67
2018-08-04T15:16:01.372Z,6.77
2018-08-04T15:18:30.643Z,6.57
2018-08-04T15:20:59.928Z,6.97
2018-08-04T15:23:29.314Z,7.50
2018-08-04T15:25:58.606Z,7.60
2018-08-04T15:28:27.877Z,7.13
2018-08-04T15:30:57.185Z,9.53
2018-08-04T15:33:26.491Z,8.30
2018-08-04T15:35:55.830Z,8.23
2018-08-04T15:38:25.198Z,8.10
2018-08-04T15:40:55.324Z,7.87
2018-08-04T15:43:24.608Z,7.73
2018-08-04T15:45:53.900Z,7.20
2018-08-04T15:48:23.269Z,8.07
2018-08-04T15:50:52.527Z,7.77
2018-08-04T15:53:21.794Z,7.63
2018-08-04T15:55:51.110Z,7.73
2018-08-04T15:58:20.377Z,7.77
2018-08-04T16:00:49.624Z,7.93
2018-08-04T16:03:19.004Z,7.27
2018-08-04T16:05:48.531Z,7.37
2018-08-04T16:08:17.808Z,8.20
2018-08-04T16:10:46.747Z,7.83
2018-08-04T16:13:15.932Z,7.87
2018-08-04T16:15:45.446Z,7.70
2018-08-04T16:18:14.756Z,8.20
2018-08-04T16:20:44.063Z,7.80
2018-08-04T16:23:13.357Z,8.00
2018-08-04T16:25:42.792Z,7.93
2018-08-04T16:28:12.088Z,7.60
2018-08-04T16:30:41.391Z,7.77
2018-08-04T16:33:10.663Z,7.63
2018-08-04T16:35:39.944Z,7.23
2018-08-04T16:38:09.228Z,7.17
2018-08-04T16:40:38.480Z,7.37
2018-08-04T16:43:07.775Z,7.10
2018-08-04T16:45:37.058Z,7.10
2018-08-04T16:48:06.364Z,7.30
2018-08-04T16:50:35.647Z,7.40
2018-08-04T16:53:05.242Z,7.53
2018-08-04T16:55:34.583Z,7.33
2018-08-04T16:58:03.960Z,7.07
2018-08-04T17:00:33.236Z,6.97
2018-08-04T17:03:02.621Z,7.27
2018-08-04T17:05:31.914Z,6.67
2018-08-04T17:08:01.308Z,7.03
2018-08-04T17:10:30.551Z,7.30
2018-08-04T17:12:59.817Z,6.60
2018-08-04T17:15:29.117Z,7.53
2018-08-04T17:17:58.391Z,6.60
2018-08-04T17:20:27.711Z,6.97
2018-08-04T17:22:57.195Z,6.93
2018-08-04T17:25:26.683Z,7.13
2018-08-04T17:27:55.947Z,6.83
2018-08-04T17:30:25.274Z,6.47
2018-08-04T17:32:54.566Z,7.37
2018-08-04T17:35:23.894Z,6.67
2018-08-04T17:37:53.495Z,6.90
2018-08-04T17:40:22.791Z,6.90
2018-08-04T17:42:52.111Z,6.67
2018-08-04T17:45:21.467Z,7.53
2018-08-04T17:47:50.774Z,6.60
2018-08-04T17:50:20.065Z,6.50
2018-08-04T17:52:49.879Z,6.40
2018-08-04T17:55:19.164Z,6.50
2018-08-04T17:57:48.452Z,6.60
2018-08-04T18:00:17.711Z,6.93
2018-08-04T18:02:47.007Z,6.50
2018-08-04T18:05:16.331Z,6.33
2018-08-04T18:07:45.602Z,6.77
2018-08-04T18:10:14.901Z,6.90
2018-08-04T18:12:44.536Z,6.33
2018-08-04T18:15:13.804Z,6.17
2018-08-04T18:17:43.089Z,6.27
2018-08-04T18:20:12.537Z,6.20
2018-08-04T18:22:41.861Z,6.60
2018-08-04T18:25:11.158Z,6.83
2018-08-04T18:27:40.647Z,6.37
2018-08-04T18:30:09.960Z,6.50
2018-08-04T18:32:39.240Z,6.30
2018-08-04T18:35:08.584Z,6.50
2018-08-04T18:37:37.869Z,6.17
2018-08-04T18:40:07.136Z,6.40
2018-08-04T18:42:36.402Z,6.50
2018-08-04T18:45:06.186Z,6.27
2018-08-04T18:47:36.718Z,6.17
2018-08-04T18:50:06.066Z,6.20
2018-08-04T18:52:35.006Z,6.70
2018-08-04T18:55:04.188Z,6.40
2018-08-04T18:57:33.495Z,5.78
2018-08-04T19:00:02.776Z,5.80
2018-08-04T19:02:33.517Z,6.77
2018-08-04T19:05:02.780Z,7.63
2018-08-04T19:07:31.743Z,7.23
2018-08-04T19:10:00.939Z,7.27
2018-08-04T19:12:30.255Z,7.57
2018-08-04T19:14:59.543Z,7.97
2018-08-04T19:17:28.828Z,8.30
2018-08-04T19:19:59.964Z,7.60
2018-08-04T19:22:29.273Z,7.27
2018-08-04T19:24:58.555Z,7.43
2018-08-04T19:27:27.883Z,7.70
2018-08-04T19:29:57.143Z,7.50
2018-08-04T19:32:27.740Z,7.27
2018-08-04T19:34:57.056Z,7.47
2018-08-04T19:37:26.343Z,7.00
2018-08-04T19:39:55.616Z,6.93
2018-08-04T19:42:24.943Z,7.13
2018-08-04T19:44:54.217Z,7.40
2018-08-04T19:47:23.636Z,6.90
2018-08-04T19:49:53.124Z,7.23
2018-08-04T19:52:22.453Z,7.30
2018-08-04T19:54:51.754Z,6.70
2018-08-04T19:57:21.031Z,6.80
2018-08-04T19:59:50.292Z,7.00
2018-08-04T20:02:19.572Z,6.80
2018-08-04T20:04:48.882Z,7.20
2018-08-04T20:07:18.140Z,7.27
2018-08-04T20:10:18.241Z,6.97
2018-08-04T20:12:47.500Z,6.80
2018-08-04T20:15:16.861Z,7.00
2018-08-04T20:17:46.136Z,6.57
2018-08-04T20:20:15.474Z,7.00
2018-08-04T20:22:44.728Z,6.70
2018-08-04T20:25:14.219Z,7.00
2018-08-04T20:27:43.659Z,6.97
2018-08-04T20:30:12.971Z,7.43
2018-08-04T20:32:42.279Z,6.67
2018-08-04T20:35:11.563Z,7.43
2018-08-04T20:37:40.847Z,7.10
2018-08-04T20:40:10.135Z,6.87
2018-08-04T20:42:40.379Z,7.53
2018-08-04T20:45:09.658Z,6.57
2018-08-04T20:47:38.966Z,7.10
2018-08-04T20:50:08.247Z,7.23
2018-08-04T20:52:37.601Z,7.10
2018-08-04T20:55:06.880Z,7.57
2018-08-04T20:57:36.147Z,6.90
2018-08-04T21:00:06.027Z,7.53
2018-08-04T21:02:35.304Z,7.53
2018-08-04T21:05:04.953Z,7.37
2018-08-04T21:07:34.244Z,7.03
2018-08-04T21:10:03.557Z,7.77
2018-08-04T21:12:32.864Z,8.20
2018-08-04T21:15:02.247Z,7.77
2018-08-04T21:17:31.580Z,8.00
2018-08-04T21:20:00.846Z,7.97
2018-08-04T21:22:30.493Z,7.47
2018-08-04T21:24:59.976Z,7.67
2018-08-04T21:27:29.248Z,7.70
2018-08-04T21:29:58.553Z,7.05
2018-08-04T21:32:27.922Z,6.50
2018-08-04T21:34:57.249Z,7.50
2018-08-04T21:37:26.566Z,7.60
2018-08-04T21:39:55.912Z,7.57
2018-08-04T21:42:25.267Z,7.90
2018-08-04T21:44:54.523Z,8.20
2018-08-04T21:47:23.871Z,8.40
2018-08-04T21:49:53.182Z,8.00
2018-08-04T21:52:22.758Z,7.22
2018-08-04T21:54:52.060Z,7.45
2018-08-04T21:57:21.290Z,7.20
2018-08-04T21:59:50.596Z,6.62
2018-08-04T22:02:19.894Z,6.87
2018-08-04T22:04:49.223Z,6.65
2018-08-04T22:07:54.943Z,6.83
2018-08-04T22:10:24.328Z,7.15
2018-08-04T22:12:53.653Z,6.42
2018-08-04T22:15:22.858Z,7.37
2018-08-04T22:17:52.229Z,6.30
2018-08-04T22:20:22.323Z,6.95
2018-08-04T22:22:51.665Z,6.45
2018-08-04T22:25:22.168Z,6.62
2018-08-04T22:27:51.650Z,7.00
2018-08-04T22:30:21.791Z,6.35
2018-08-04T22:33:04.332Z,6.97
2018-08-04T22:35:37.611Z,6.60
2018-08-04T22:38:06.884Z,6.58
2018-08-04T22:40:36.130Z,6.57
2018-08-04T22:43:05.763Z,7.03
2018-08-04T22:46:12.407Z,6.43
2018-08-04T22:48:42.823Z,6.33
2018-08-04T22:51:12.111Z,6.60
2018-08-04T22:53:41.400Z,6.77
2018-08-04T22:56:10.679Z,6.47
2018-08-04T22:58:39.971Z,6.33
2018-08-04T23:01:09.280Z,6.90
2018-08-04T23:03:38.574Z,7.13
2018-08-04T23:06:07.852Z,6.40
2018-08-04T23:08:37.215Z,6.17
2018-08-04T23:11:06.525Z,6.00
2018-08-04T23:13:35.821Z,5.80
2018-08-04T23:16:05.122Z,6.50
2018-08-04T23:18:34.410Z,6.20
2018-08-04T23:21:03.743Z,6.17
2018-08-04T23:23:33.016Z,6.23
2018-08-04T23:26:01.962Z,6.10
2018-08-04T23:28:31.144Z,5.73
2018-08-04T23:31:00.754Z,6.23
2018-08-04T23:33:30.069Z,6.03
2018-08-04T23:36:12.336Z,6.43
2018-08-04T23:38:57.331Z,6.40
2018-08-04T23:41:44.907Z,6.73
2018-08-04T23:44:22.395Z,7.23
2018-08-04T23:47:06.984Z,9.10
2018-08-04T23:49:36.272Z,7.07
2018-08-04T23:52:05.544Z,7.30
2018-08-04T23:54:34.808Z,6.77
2018-08-04T23:57:04.083Z,7.63
2018-08-04T23:59:33.576Z,7.10
